sensor_id;sensor_type;location;lat;lon;timestamp;P1;durP1;ratioP1;P2;durP2;ratioP2
6821;SDS011;3449;48.728;8.968;2023-05-07T00:00:40;3.70;;;2.90;;
6821;SDS011;3449;48.728;8.968;2023-05-07T00:03:08;4.57;;;3.40;;
6821;SDS011;3449;48.728;8.968;2023-05-07T00:05:36;6.83;;;3.70;;
6821;SDS011;3449;48.728;8.968;2023-05-07T00:08:04;4.10;;;3.20;;
6821;SDS011;3449;48.728;8.968;2023-05-07T00:10:31;4.13;;;3.40;;
6821;SDS011;3449;48.728;8.968;2023-05-07T00:12:57;4.17;;;3.67;;
6821;SDS011;3449;48.728;8.968;2023-05-07T00:15:25;5.03;;;3.43;;
6821;SDS011;3449;48.728;8.968;2023-05-07T00:17:53;5.30;;;3.40;;
6821;SDS011;3449;48.728;8.968;2023-05-07T00:20:22;5.07;;;3.73;;
6821;SDS011;3449;48.728;8.968;2023-05-07T00:22:49;4.50;;;2.80;;
6821;SDS011;3449;48.728;8.968;2023-05-07T00:25:16;3.97;;;3.07;;
6821;SDS011;3449;48.728;8.968;2023-05-07T00:27:44;6.67;;;3.20;;
6821;SDS011;3449;48.728;8.968;2023-05-07T00:30:11;3.57;;;2.67;;
6821;SDS011;3449;48.728;8.968;2023-05-07T00:32:38;4.30;;;3.70;;
6821;SDS011;3449;48.728;8.968;2023-05-07T00:35:07;4.30;;;3.57;;
6821;SDS011;3449;48.728;8.968;2023-05-07T00:37:35;5.00;;;3.37;;
6821;SDS011;3449;48.728;8.968;2023-05-07T00:40:02;6.30;;;4.00;;
6821;SDS011;3449;48.728;8.968;2023-05-07T00:42:32;9.37;;;3.70;;
6821;SDS011;3449;48.728;8.968;2023-05-07T00:44:59;6.70;;;3.97;;
6821;SDS011;3449;48.728;8.968;2023-05-07T00:47:25;16.13;;;3.87;;
6821;SDS011;3449;48.728;8.968;2023-05-07T00:49:52;5.77;;;3.93;;
6821;SDS011;3449;48.728;8.968;2023-05-07T00:52:21;5.57;;;3.77;;
6821;SDS011;3449;48.728;8.968;2023-05-07T00:54:51;5.00;;;4.17;;
6821;SDS011;3449;48.728;8.968;2023-05-07T00:57:18;6.60;;;3.83;;
6821;SDS011;3449;48.728;8.968;2023-05-07T00:59:47;5.27;;;3.80;;
6821;SDS011;3449;48.728;8.968;2023-05-07T01:02:14;9.50;;;3.73;;
6821;SDS011;3449;48.728;8.968;2023-05-07T01:04:41;6.13;;;3.77;;
6821;SDS011;3449;48.728;8.968;2023-05-07T01:07:08;4.00;;;3.20;;
6821;SDS011;3449;48.728;8.968;2023-05-07T01:09:36;5.10;;;3.30;;
6821;SDS011;3449;48.728;8.968;2023-05-07T01:12:04;4.37;;;3.20;;
6821;SDS011;3449;48.728;8.968;2023-05-07T01:14:31;4.30;;;3.80;;
6821;SDS011;3449;48.728;8.968;2023-05-07T01:16:58;4.70;;;3.60;;
6821;SDS011;3449;48.728;8.968;2023-05-07T01:19:25;4.50;;;3.40;;
6821;SDS011;3449;48.728;8.968;2023-05-07T01:21:56;5.80;;;3.30;;
6821;SDS011;3449;48.728;8.968;2023-05-07T01:24:30;4.13;;;3.40;;
6821;SDS011;3449;48.728;8.968;2023-05-07T01:26:57;3.77;;;3.03;;
6821;SDS011;3449;48.728;8.968;2023-05-07T01:29:26;5.63;;;3.40;;
6821;SDS011;3449;48.728;8.968;2023-05-07T01:31:53;3.83;;;3.23;;
6821;SDS011;3449;48.728;8.968;2023-05-07T01:34:22;4.53;;;3.57;;
6821;SDS011;3449;48.728;8.968;2023-05-07T01:36:52;6.50;;;3.40;;
6821;SDS011;3449;48.728;8.968;2023-05-07T01:39:20;5.97;;;3.90;;
6821;SDS011;3449;48.728;8.968;2023-05-07T01:41:49;4.40;;;3.50;;
6821;SDS011;3449;48.728;8.968;2023-05-07T01:44:16;6.47;;;3.30;;
6821;SDS011;3449;48.728;8.968;2023-05-07T01:46:45;4.80;;;3.43;;
6821;SDS011;3449;48.728;8.968;2023-05-07T01:49:12;4.60;;;3.50;;
6821;SDS011;3449;48.728;8.968;2023-05-07T01:51:39;4.60;;;3.53;;
6821;SDS011;3449;48.728;8.968;2023-05-07T01:54:06;4.00;;;3.43;;
6821;SDS011;3449;48.728;8.968;2023-05-07T01:56:33;4.17;;;3.67;;
6821;SDS011;3449;48.728;8.968;2023-05-07T01:59:02;6.67;;;3.60;;
6821;SDS011;3449;48.728;8.968;2023-05-07T02:01:28;8.77;;;3.80;;
6821;SDS011;3449;48.728;8.968;2023-05-07T02:03:55;9.97;;;3.97;;
6821;SDS011;3449;48.728;8.968;2023-05-07T02:06:22;6.40;;;3.90;;
6821;SDS011;3449;48.728;8.968;2023-05-07T02:08:49;6.63;;;3.33;;
6821;SDS011;3449;48.728;8.968;2023-05-07T02:11:16;4.63;;;3.87;;
6821;SDS011;3449;48.728;8.968;2023-05-07T02:13:43;4.47;;;3.27;;
6821;SDS011;3449;48.728;8.968;2023-05-07T02:16:11;4.87;;;3.93;;
6821;SDS011;3449;48.728;8.968;2023-05-07T02:18:39;6.20;;;3.90;;
6821;SDS011;3449;48.728;8.968;2023-05-07T02:21:06;7.27;;;4.30;;
6821;SDS011;3449;48.728;8.968;2023-05-07T02:23:33;5.17;;;3.60;;
6821;SDS011;3449;48.728;8.968;2023-05-07T02:25:59;3.87;;;3.47;;
6821;SDS011;3449;48.728;8.968;2023-05-07T02:28:26;4.67;;;3.60;;
6821;SDS011;3449;48.728;8.968;2023-05-07T02:30:53;6.70;;;4.00;;
6821;SDS011;3449;48.728;8.968;2023-05-07T02:33:21;3.53;;;3.23;;
6821;SDS011;3449;48.728;8.968;2023-05-07T02:35:48;5.30;;;3.73;;
6821;SDS011;3449;48.728;8.968;2023-05-07T02:38:17;5.93;;;4.27;;
6821;SDS011;3449;48.728;8.968;2023-05-07T02:40:44;6.83;;;4.23;;
6821;SDS011;3449;48.728;8.968;2023-05-07T02:43:10;7.90;;;4.20;;
6821;SDS011;3449;48.728;8.968;2023-05-07T02:45:37;6.90;;;4.80;;
6821;SDS011;3449;48.728;8.968;2023-05-07T02:48:04;6.57;;;4.70;;
6821;SDS011;3449;48.728;8.968;2023-05-07T02:50:33;6.20;;;3.83;;
6821;SDS011;3449;48.728;8.968;2023-05-07T02:52:59;5.50;;;3.67;;
6821;SDS011;3449;48.728;8.968;2023-05-07T02:55:26;7.03;;;4.40;;
6821;SDS011;3449;48.728;8.968;2023-05-07T02:57:53;5.23;;;3.10;;
6821;SDS011;3449;48.728;8.968;2023-05-07T03:00:20;5.23;;;3.37;;
6821;SDS011;3449;48.728;8.968;2023-05-07T03:02:48;3.20;;;2.90;;
6821;SDS011;3449;48.728;8.968;2023-05-07T03:05:14;10.63;;;3.80;;
6821;SDS011;3449;48.728;8.968;2023-05-07T03:07:43;6.57;;;3.00;;
6821;SDS011;3449;48.728;8.968;2023-05-07T03:10:11;4.97;;;3.03;;
6821;SDS011;3449;48.728;8.968;2023-05-07T03:12:38;3.97;;;3.50;;
6821;SDS011;3449;48.728;8.968;2023-05-07T03:15:05;8.03;;;3.10;;
6821;SDS011;3449;48.728;8.968;2023-05-07T03:17:33;4.63;;;3.80;;
6821;SDS011;3449;48.728;8.968;2023-05-07T03:20:00;4.07;;;2.80;;
6821;SDS011;3449;48.728;8.968;2023-05-07T03:22:26;3.27;;;2.70;;
6821;SDS011;3449;48.728;8.968;2023-05-07T03:24:55;5.77;;;3.37;;
6821;SDS011;3449;48.728;8.968;2023-05-07T03:27:21;9.83;;;3.53;;
6821;SDS011;3449;48.728;8.968;2023-05-07T03:29:48;3.50;;;3.00;;
6821;SDS011;3449;48.728;8.968;2023-05-07T03:32:15;4.30;;;2.87;;
6821;SDS011;3449;48.728;8.968;2023-05-07T03:34:42;3.23;;;2.87;;
6821;SDS011;3449;48.728;8.968;2023-05-07T03:37:09;5.60;;;3.80;;
6821;SDS011;3449;48.728;8.968;2023-05-07T03:39:36;7.30;;;3.67;;
6821;SDS011;3449;48.728;8.968;2023-05-07T03:42:04;5.73;;;3.30;;
6821;SDS011;3449;48.728;8.968;2023-05-07T03:44:31;5.80;;;3.30;;
6821;SDS011;3449;48.728;8.968;2023-05-07T03:46:58;10.33;;;4.10;;
6821;SDS011;3449;48.728;8.968;2023-05-07T03:49:25;6.03;;;3.77;;
6821;SDS011;3449;48.728;8.968;2023-05-07T03:51:51;6.60;;;4.70;;
6821;SDS011;3449;48.728;8.968;2023-05-07T03:54:18;5.20;;;3.97;;
6821;SDS011;3449;48.728;8.968;2023-05-07T03:56:45;7.70;;;4.40;;
6821;SDS011;3449;48.728;8.968;2023-05-07T03:59:13;6.37;;;3.63;;
6821;SDS011;3449;48.728;8.968;2023-05-07T04:01:40;4.00;;;3.60;;
6821;SDS011;3449;48.728;8.968;2023-05-07T04:04:07;3.93;;;3.40;;
6821;SDS011;3449;48.728;8.968;2023-05-07T04:06:34;5.50;;;4.07;;
6821;SDS011;3449;48.728;8.968;2023-05-07T04:09:01;4.17;;;3.43;;
6821;SDS011;3449;48.728;8.968;2023-05-07T04:11:28;5.60;;;3.63;;
6821;SDS011;3449;48.728;8.968;2023-05-07T04:13:55;6.43;;;3.70;;
6821;SDS011;3449;48.728;8.968;2023-05-07T04:16:23;5.13;;;3.80;;
6821;SDS011;3449;48.728;8.968;2023-05-07T04:18:50;5.40;;;3.30;;
6821;SDS011;3449;48.728;8.968;2023-05-07T04:21:17;3.70;;;3.10;;
6821;SDS011;3449;48.728;8.968;2023-05-07T04:23:45;5.70;;;2.73;;
6821;SDS011;3449;48.728;8.968;2023-05-07T04:26:12;9.03;;;3.63;;
6821;SDS011;3449;48.728;8.968;2023-05-07T04:28:39;4.20;;;3.30;;
6821;SDS011;3449;48.728;8.968;2023-05-07T04:31:06;4.20;;;3.30;;
6821;SDS011;3449;48.728;8.968;2023-05-07T04:33:34;4.77;;;3.57;;
6821;SDS011;3449;48.728;8.968;2023-05-07T04:36:01;8.07;;;3.30;;
6821;SDS011;3449;48.728;8.968;2023-05-07T04:38:29;6.20;;;3.70;;
6821;SDS011;3449;48.728;8.968;2023-05-07T04:40:57;3.60;;;2.87;;
6821;SDS011;3449;48.728;8.968;2023-05-07T04:43:28;4.70;;;4.10;;
6821;SDS011;3449;48.728;8.968;2023-05-07T04:45:55;6.87;;;3.30;;
6821;SDS011;3449;48.728;8.968;2023-05-07T04:48:22;5.40;;;3.17;;
6821;SDS011;3449;48.728;8.968;2023-05-07T04:50:50;4.20;;;3.07;;
6821;SDS011;3449;48.728;8.968;2023-05-07T04:53:17;3.10;;;2.80;;
6821;SDS011;3449;48.728;8.968;2023-05-07T04:55:44;3.50;;;3.20;;
6821;SDS011;3449;48.728;8.968;2023-05-07T04:58:11;13.20;;;3.97;;
6821;SDS011;3449;48.728;8.968;2023-05-07T05:00:38;6.63;;;3.57;;
6821;SDS011;3449;48.728;8.968;2023-05-07T05:03:06;6.77;;;3.00;;
6821;SDS011;3449;48.728;8.968;2023-05-07T05:05:33;7.30;;;3.20;;
6821;SDS011;3449;48.728;8.968;2023-05-07T05:08:01;10.70;;;2.87;;
6821;SDS011;3449;48.728;8.968;2023-05-07T05:10:28;5.03;;;3.20;;
6821;SDS011;3449;48.728;8.968;2023-05-07T05:12:54;4.67;;;3.00;;
6821;SDS011;3449;48.728;8.968;2023-05-07T05:15:21;3.33;;;3.03;;
6821;SDS011;3449;48.728;8.968;2023-05-07T05:17:48;4.50;;;3.63;;
6821;SDS011;3449;48.728;8.968;2023-05-07T05:20:15;4.37;;;3.60;;
6821;SDS011;3449;48.728;8.968;2023-05-07T05:22:42;3.83;;;3.30;;
6821;SDS011;3449;48.728;8.968;2023-05-07T05:25:11;7.10;;;3.90;;
6821;SDS011;3449;48.728;8.968;2023-05-07T05:27:38;4.87;;;3.17;;
6821;SDS011;3449;48.728;8.968;2023-05-07T05:30:05;7.00;;;3.90;;
6821;SDS011;3449;48.728;8.968;2023-05-07T05:32:32;3.20;;;2.83;;
6821;SDS011;3449;48.728;8.968;2023-05-07T05:34:59;5.00;;;3.43;;
6821;SDS011;3449;48.728;8.968;2023-05-07T05:37:26;3.67;;;3.13;;
6821;SDS011;3449;48.728;8.968;2023-05-07T05:39:55;6.20;;;3.53;;
6821;SDS011;3449;48.728;8.968;2023-05-07T05:42:23;4.17;;;3.40;;
6821;SDS011;3449;48.728;8.968;2023-05-07T05:44:50;5.33;;;3.13;;
6821;SDS011;3449;48.728;8.968;2023-05-07T05:47:17;3.20;;;2.90;;
6821;SDS011;3449;48.728;8.968;2023-05-07T05:49:43;3.23;;;2.57;;
6821;SDS011;3449;48.728;8.968;2023-05-07T05:52:11;5.30;;;3.27;;
6821;SDS011;3449;48.728;8.968;2023-05-07T05:54:38;6.00;;;3.20;;
6821;SDS011;3449;48.728;8.968;2023-05-07T05:57:05;4.63;;;2.83;;
6821;SDS011;3449;48.728;8.968;2023-05-07T05:59:35;3.17;;;2.97;;
6821;SDS011;3449;48.728;8.968;2023-05-07T06:02:02;5.73;;;3.20;;
6821;SDS011;3449;48.728;8.968;2023-05-07T06:04:29;3.30;;;2.97;;
6821;SDS011;3449;48.728;8.968;2023-05-07T06:06:56;3.53;;;3.17;;
6821;SDS011;3449;48.728;8.968;2023-05-07T06:09:22;3.40;;;2.90;;
6821;SDS011;3449;48.728;8.968;2023-05-07T06:11:49;3.13;;;2.83;;
6821;SDS011;3449;48.728;8.968;2023-05-07T06:14:16;3.67;;;3.03;;
6821;SDS011;3449;48.728;8.968;2023-05-07T06:16:44;4.67;;;3.03;;
6821;SDS011;3449;48.728;8.968;2023-05-07T06:19:11;4.93;;;3.43;;
6821;SDS011;3449;48.728;8.968;2023-05-07T06:21:38;3.60;;;2.90;;
6821;SDS011;3449;48.728;8.968;2023-05-07T06:24:06;3.93;;;3.17;;
6821;SDS011;3449;48.728;8.968;2023-05-07T06:26:33;3.30;;;3.00;;
6821;SDS011;3449;48.728;8.968;2023-05-07T06:29:00;3.73;;;3.43;;
6821;SDS011;3449;48.728;8.968;2023-05-07T06:31:29;5.60;;;3.40;;
6821;SDS011;3449;48.728;8.968;2023-05-07T06:33:58;3.20;;;2.90;;
6821;SDS011;3449;48.728;8.968;2023-05-07T06:36:27;4.60;;;3.20;;
6821;SDS011;3449;48.728;8.968;2023-05-07T06:38:54;3.50;;;3.20;;
6821;SDS011;3449;48.728;8.968;2023-05-07T06:41:21;3.30;;;3.00;;
6821;SDS011;3449;48.728;8.968;2023-05-07T06:43:48;4.07;;;3.60;;
6821;SDS011;3449;48.728;8.968;2023-05-07T06:46:15;3.00;;;2.20;;
6821;SDS011;3449;48.728;8.968;2023-05-07T06:48:42;2.93;;;2.70;;
6821;SDS011;3449;48.728;8.968;2023-05-07T06:51:10;3.27;;;2.97;;
6821;SDS011;3449;48.728;8.968;2023-05-07T06:53:37;4.33;;;2.60;;
6821;SDS011;3449;48.728;8.968;2023-05-07T06:56:04;4.70;;;2.33;;
6821;SDS011;3449;48.728;8.968;2023-05-07T06:58:31;3.83;;;2.67;;
6821;SDS011;3449;48.728;8.968;2023-05-07T07:00:58;2.80;;;2.60;;
6821;SDS011;3449;48.728;8.968;2023-05-07T07:03:25;3.93;;;2.53;;
6821;SDS011;3449;48.728;8.968;2023-05-07T07:05:52;2.93;;;2.30;;
6821;SDS011;3449;48.728;8.968;2023-05-07T07:08:21;7.60;;;2.53;;
6821;SDS011;3449;48.728;8.968;2023-05-07T07:10:48;6.47;;;2.90;;
6821;SDS011;3449;48.728;8.968;2023-05-07T07:13:15;8.23;;;2.83;;
6821;SDS011;3449;48.728;8.968;2023-05-07T07:15:43;8.00;;;2.60;;
6821;SDS011;3449;48.728;8.968;2023-05-07T07:18:10;3.70;;;2.43;;
6821;SDS011;3449;48.728;8.968;2023-05-07T07:20:37;3.57;;;2.70;;
6821;SDS011;3449;48.728;8.968;2023-05-07T07:23:05;2.60;;;2.40;;
6821;SDS011;3449;48.728;8.968;2023-05-07T07:25:33;2.07;;;1.97;;
6821;SDS011;3449;48.728;8.968;2023-05-07T07:28:00;3.37;;;2.93;;
6821;SDS011;3449;48.728;8.968;2023-05-07T07:30:27;3.53;;;2.93;;
6821;SDS011;3449;48.728;8.968;2023-05-07T07:32:54;6.80;;;2.80;;
6821;SDS011;3449;48.728;8.968;2023-05-07T07:35:25;2.50;;;2.30;;
6821;SDS011;3449;48.728;8.968;2023-05-07T07:37:52;2.80;;;2.43;;
6821;SDS011;3449;48.728;8.968;2023-05-07T07:40:19;2.83;;;2.30;;
6821;SDS011;3449;48.728;8.968;2023-05-07T07:42:47;2.70;;;2.50;;
6821;SDS011;3449;48.728;8.968;2023-05-07T07:45:14;2.60;;;2.40;;
6821;SDS011;3449;48.728;8.968;2023-05-07T07:47:41;7.43;;;2.77;;
6821;SDS011;3449;48.728;8.968;2023-05-07T07:50:08;2.67;;;2.27;;
6821;SDS011;3449;48.728;8.968;2023-05-07T07:52:35;4.33;;;2.30;;
6821;SDS011;3449;48.728;8.968;2023-05-07T07:55:03;2.70;;;2.17;;
6821;SDS011;3449;48.728;8.968;2023-05-07T07:57:30;2.27;;;2.07;;
6821;SDS011;3449;48.728;8.968;2023-05-07T07:59:58;2.50;;;2.30;;
6821;SDS011;3449;48.728;8.968;2023-05-07T08:02:25;2.30;;;1.97;;
6821;SDS011;3449;48.728;8.968;2023-05-07T08:04:52;2.33;;;2.07;;
6821;SDS011;3449;48.728;8.968;2023-05-07T08:07:19;2.20;;;1.67;;
6821;SDS011;3449;48.728;8.968;2023-05-07T08:09:47;1.80;;;1.70;;
6821;SDS011;3449;48.728;8.968;2023-05-07T08:12:14;2.70;;;1.63;;
6821;SDS011;3449;48.728;8.968;2023-05-07T08:14:41;1.70;;;1.60;;
6821;SDS011;3449;48.728;8.968;2023-05-07T08:17:10;2.37;;;1.70;;
6821;SDS011;3449;48.728;8.968;2023-05-07T08:19:37;2.37;;;2.17;;
6821;SDS011;3449;48.728;8.968;2023-05-07T08:22:03;1.87;;;1.67;;
6821;SDS011;3449;48.728;8.968;2023-05-07T08:24:30;3.90;;;1.83;;
6821;SDS011;3449;48.728;8.968;2023-05-07T08:26:57;1.93;;;1.80;;
6821;SDS011;3449;48.728;8.968;2023-05-07T08:29:24;3.40;;;2.13;;
6821;SDS011;3449;48.728;8.968;2023-05-07T08:31:51;3.07;;;1.93;;
6821;SDS011;3449;48.728;8.968;2023-05-07T08:34:19;1.83;;;1.73;;
6821;SDS011;3449;48.728;8.968;2023-05-07T08:36:47;6.30;;;1.87;;
6821;SDS011;3449;48.728;8.968;2023-05-07T08:39:14;2.20;;;1.90;;
6821;SDS011;3449;48.728;8.968;2023-05-07T08:41:42;1.90;;;1.80;;
6821;SDS011;3449;48.728;8.968;2023-05-07T08:44:12;1.67;;;1.47;;
6821;SDS011;3449;48.728;8.968;2023-05-07T08:46:39;1.77;;;1.67;;
6821;SDS011;3449;48.728;8.968;2023-05-07T08:49:08;1.70;;;1.60;;
6821;SDS011;3449;48.728;8.968;2023-05-07T08:51:36;4.00;;;1.67;;
6821;SDS011;3449;48.728;8.968;2023-05-07T08:54:04;2.00;;;1.30;;
6821;SDS011;3449;48.728;8.968;2023-05-07T08:56:31;1.80;;;1.30;;
6821;SDS011;3449;48.728;8.968;2023-05-07T08:58:58;1.77;;;1.07;;
6821;SDS011;3449;48.728;8.968;2023-05-07T09:01:25;1.40;;;1.33;;
6821;SDS011;3449;48.728;8.968;2023-05-07T09:03:52;1.90;;;1.70;;
6821;SDS011;3449;48.728;8.968;2023-05-07T09:06:20;1.73;;;1.60;;
6821;SDS011;3449;48.728;8.968;2023-05-07T09:08:51;1.97;;;1.80;;
6821;SDS011;3449;48.728;8.968;2023-05-07T09:11:20;1.97;;;1.87;;
6821;SDS011;3449;48.728;8.968;2023-05-07T09:13:48;1.50;;;1.40;;
6821;SDS011;3449;48.728;8.968;2023-05-07T09:16:19;1.60;;;1.50;;
6821;SDS011;3449;48.728;8.968;2023-05-07T09:18:48;2.40;;;1.70;;
6821;SDS011;3449;48.728;8.968;2023-05-07T09:21:18;2.57;;;1.80;;
6821;SDS011;3449;48.728;8.968;2023-05-07T09:23:45;1.50;;;1.40;;
6821;SDS011;3449;48.728;8.968;2023-05-07T09:26:15;3.17;;;2.17;;
6821;SDS011;3449;48.728;8.968;2023-05-07T09:28:42;3.03;;;1.73;;
6821;SDS011;3449;48.728;8.968;2023-05-07T09:31:11;2.43;;;1.70;;
6821;SDS011;3449;48.728;8.968;2023-05-07T09:33:38;2.33;;;1.87;;
6821;SDS011;3449;48.728;8.968;2023-05-07T09:36:05;3.37;;;1.70;;
6821;SDS011;3449;48.728;8.968;2023-05-07T09:38:35;1.60;;;1.50;;
6821;SDS011;3449;48.728;8.968;2023-05-07T09:41:03;1.63;;;1.53;;
6821;SDS011;3449;48.728;8.968;2023-05-07T09:43:32;3.33;;;1.70;;
6821;SDS011;3449;48.728;8.968;2023-05-07T09:46:01;1.60;;;1.50;;
6821;SDS011;3449;48.728;8.968;2023-05-07T09:48:29;1.63;;;1.47;;
6821;SDS011;3449;48.728;8.968;2023-05-07T09:50:57;3.67;;;2.10;;
6821;SDS011;3449;48.728;8.968;2023-05-07T09:53:29;1.47;;;1.37;;
6821;SDS011;3449;48.728;8.968;2023-05-07T09:55:57;1.70;;;1.60;;
6821;SDS011;3449;48.728;8.968;2023-05-07T09:58:25;1.90;;;1.77;;
6821;SDS011;3449;48.728;8.968;2023-05-07T10:00:55;1.93;;;1.70;;
6821;SDS011;3449;48.728;8.968;2023-05-07T10:03:23;1.97;;;1.53;;
6821;SDS011;3449;48.728;8.968;2023-05-07T10:05:53;2.40;;;2.13;;
6821;SDS011;3449;48.728;8.968;2023-05-07T10:08:21;1.43;;;1.33;;
6821;SDS011;3449;48.728;8.968;2023-05-07T10:10:48;2.73;;;1.70;;
6821;SDS011;3449;48.728;8.968;2023-05-07T10:13:16;2.33;;;2.07;;
6821;SDS011;3449;48.728;8.968;2023-05-07T10:15:45;3.10;;;2.10;;
6821;SDS011;3449;48.728;8.968;2023-05-07T10:18:14;2.40;;;1.60;;
6821;SDS011;3449;48.728;8.968;2023-05-07T10:20:42;1.80;;;1.70;;
6821;SDS011;3449;48.728;8.968;2023-05-07T10:23:13;2.40;;;2.17;;
6821;SDS011;3449;48.728;8.968;2023-05-07T10:25:43;3.03;;;2.17;;
6821;SDS011;3449;48.728;8.968;2023-05-07T10:28:11;1.93;;;1.83;;
6821;SDS011;3449;48.728;8.968;2023-05-07T10:30:43;1.57;;;1.47;;
6821;SDS011;3449;48.728;8.968;2023-05-07T10:33:21;2.47;;;1.70;;
6821;SDS011;3449;48.728;8.968;2023-05-07T10:35:50;2.20;;;2.00;;
6821;SDS011;3449;48.728;8.968;2023-05-07T10:38:21;2.80;;;1.63;;
6821;SDS011;3449;48.728;8.968;2023-05-07T10:40:48;2.40;;;1.70;;
6821;SDS011;3449;48.728;8.968;2023-05-07T10:43:17;1.47;;;1.37;;
6821;SDS011;3449;48.728;8.968;2023-05-07T10:45:44;3.33;;;1.90;;
6821;SDS011;3449;48.728;8.968;2023-05-07T10:51:37;1.57;;;1.40;;
6821;SDS011;3449;48.728;8.968;2023-05-07T10:54:20;1.53;;;1.43;;
6821;SDS011;3449;48.728;8.968;2023-05-07T10:56:48;4.30;;;1.87;;
6821;SDS011;3449;48.728;8.968;2023-05-07T10:59:32;1.57;;;1.47;;
6821;SDS011;3449;48.728;8.968;2023-05-07T11:02:05;3.03;;;1.60;;
6821;SDS011;3449;48.728;8.968;2023-05-07T11:04:36;1.47;;;1.37;;
6821;SDS011;3449;48.728;8.968;2023-05-07T11:09:59;2.50;;;1.50;;
6821;SDS011;3449;48.728;8.968;2023-05-07T11:12:49;2.00;;;1.80;;
6821;SDS011;3449;48.728;8.968;2023-05-07T11:18:14;1.60;;;1.50;;
6821;SDS011;3449;48.728;8.968;2023-05-07T11:20:50;2.00;;;1.90;;
6821;SDS011;3449;48.728;8.968;2023-05-07T11:26:25;2.47;;;2.27;;
6821;SDS011;3449;48.728;8.968;2023-05-07T11:28:54;2.03;;;1.90;;
6821;SDS011;3449;48.728;8.968;2023-05-07T11:31:22;2.50;;;2.30;;
6821;SDS011;3449;48.728;8.968;2023-05-07T11:33:51;2.67;;;2.47;;
6821;SDS011;3449;48.728;8.968;2023-05-07T11:36:21;2.77;;;2.27;;
6821;SDS011;3449;48.728;8.968;2023-05-07T11:38:49;2.40;;;2.20;;
6821;SDS011;3449;48.728;8.968;2023-05-07T11:41:16;3.20;;;2.60;;
6821;SDS011;3449;48.728;8.968;2023-05-07T11:43:57;5.10;;;2.90;;
6821;SDS011;3449;48.728;8.968;2023-05-07T11:46:25;7.60;;;2.63;;
6821;SDS011;3449;48.728;8.968;2023-05-07T11:48:53;6.20;;;3.30;;
6821;SDS011;3449;48.728;8.968;2023-05-07T11:51:22;9.20;;;4.57;;
6821;SDS011;3449;48.728;8.968;2023-05-07T11:53:52;3.23;;;2.40;;
6821;SDS011;3449;48.728;8.968;2023-05-07T11:56:19;4.90;;;2.53;;
6821;SDS011;3449;48.728;8.968;2023-05-07T11:58:47;7.63;;;2.50;;
6821;SDS011;3449;48.728;8.968;2023-05-07T12:01:16;5.80;;;2.77;;
6821;SDS011;3449;48.728;8.968;2023-05-07T12:03:43;7.70;;;2.90;;
6821;SDS011;3449;48.728;8.968;2023-05-07T12:06:12;3.40;;;2.17;;
6821;SDS011;3449;48.728;8.968;2023-05-07T12:08:42;4.00;;;1.43;;
6821;SDS011;3449;48.728;8.968;2023-05-07T12:11:11;6.27;;;2.00;;
6821;SDS011;3449;48.728;8.968;2023-05-07T12:13:41;11.63;;;3.37;;
6821;SDS011;3449;48.728;8.968;2023-05-07T12:16:08;8.87;;;3.17;;
6821;SDS011;3449;48.728;8.968;2023-05-07T12:18:36;7.20;;;2.17;;
6821;SDS011;3449;48.728;8.968;2023-05-07T12:21:04;8.03;;;2.53;;
6821;SDS011;3449;48.728;8.968;2023-05-07T12:23:33;5.67;;;2.17;;
6821;SDS011;3449;48.728;8.968;2023-05-07T12:26:02;4.30;;;2.13;;
6821;SDS011;3449;48.728;8.968;2023-05-07T12:28:29;3.63;;;1.97;;
6821;SDS011;3449;48.728;8.968;2023-05-07T12:30:57;6.70;;;2.77;;
6821;SDS011;3449;48.728;8.968;2023-05-07T12:33:25;13.00;;;2.00;;
6821;SDS011;3449;48.728;8.968;2023-05-07T12:35:53;4.97;;;2.10;;
6821;SDS011;3449;48.728;8.968;2023-05-07T12:38:21;3.90;;;2.20;;
6821;SDS011;3449;48.728;8.968;2023-05-07T12:40:49;5.30;;;2.47;;
6821;SDS011;3449;48.728;8.968;2023-05-07T12:43:21;3.07;;;2.47;;
6821;SDS011;3449;48.728;8.968;2023-05-07T12:45:51;1.70;;;1.60;;
6821;SDS011;3449;48.728;8.968;2023-05-07T12:48:20;2.70;;;1.73;;
6821;SDS011;3449;48.728;8.968;2023-05-07T12:50:49;3.53;;;1.83;;
6821;SDS011;3449;48.728;8.968;2023-05-07T12:53:16;6.50;;;1.93;;
6821;SDS011;3449;48.728;8.968;2023-05-07T12:55:46;6.03;;;1.70;;
6821;SDS011;3449;48.728;8.968;2023-05-07T12:58:14;4.33;;;1.67;;
6821;SDS011;3449;48.728;8.968;2023-05-07T13:00:44;1.83;;;1.40;;
6821;SDS011;3449;48.728;8.968;2023-05-07T13:03:17;2.70;;;1.50;;
6821;SDS011;3449;48.728;8.968;2023-05-07T13:05:48;3.33;;;2.00;;
6821;SDS011;3449;48.728;8.968;2023-05-07T13:08:23;2.67;;;1.70;;
6821;SDS011;3449;48.728;8.968;2023-05-07T13:10:50;1.60;;;1.50;;
6821;SDS011;3449;48.728;8.968;2023-05-07T13:13:17;3.37;;;1.87;;
6821;SDS011;3449;48.728;8.968;2023-05-07T13:15:46;3.07;;;1.67;;
6821;SDS011;3449;48.728;8.968;2023-05-07T13:18:13;2.90;;;2.17;;
6821;SDS011;3449;48.728;8.968;2023-05-07T13:20:40;5.73;;;4.40;;
6821;SDS011;3449;48.728;8.968;2023-05-07T13:23:07;3.33;;;2.80;;
6821;SDS011;3449;48.728;8.968;2023-05-07T13:25:34;3.77;;;2.20;;
6821;SDS011;3449;48.728;8.968;2023-05-07T13:28:01;3.47;;;2.17;;
6821;SDS011;3449;48.728;8.968;2023-05-07T13:30:29;3.03;;;2.10;;
6821;SDS011;3449;48.728;8.968;2023-05-07T13:32:57;3.13;;;2.00;;
6821;SDS011;3449;48.728;8.968;2023-05-07T13:35:24;2.93;;;1.97;;
6821;SDS011;3449;48.728;8.968;2023-05-07T13:37:51;2.40;;;2.20;;
6821;SDS011;3449;48.728;8.968;2023-05-07T13:40:19;5.00;;;2.10;;
6821;SDS011;3449;48.728;8.968;2023-05-07T13:42:47;3.33;;;1.80;;
6821;SDS011;3449;48.728;8.968;2023-05-07T13:45:14;2.97;;;2.13;;
6821;SDS011;3449;48.728;8.968;2023-05-07T13:47:41;2.37;;;2.17;;
6821;SDS011;3449;48.728;8.968;2023-05-07T13:50:10;4.90;;;2.47;;
6821;SDS011;3449;48.728;8.968;2023-05-07T13:52:39;3.07;;;2.57;;
6821;SDS011;3449;48.728;8.968;2023-05-07T13:55:08;2.90;;;2.43;;
6821;SDS011;3449;48.728;8.968;2023-05-07T13:57:35;1.93;;;1.83;;
6821;SDS011;3449;48.728;8.968;2023-05-07T14:00:03;4.70;;;2.33;;
6821;SDS011;3449;48.728;8.968;2023-05-07T14:02:31;3.43;;;2.63;;
6821;SDS011;3449;48.728;8.968;2023-05-07T14:04:58;4.47;;;2.67;;
6821;SDS011;3449;48.728;8.968;2023-05-07T14:07:27;5.50;;;2.83;;
6821;SDS011;3449;48.728;8.968;2023-05-07T14:09:54;2.90;;;2.50;;
6821;SDS011;3449;48.728;8.968;2023-05-07T14:12:21;3.70;;;2.47;;
6821;SDS011;3449;48.728;8.968;2023-05-07T14:14:50;3.33;;;2.20;;
6821;SDS011;3449;48.728;8.968;2023-05-07T14:17:19;4.50;;;2.60;;
6821;SDS011;3449;48.728;8.968;2023-05-07T14:19:51;6.70;;;3.07;;
6821;SDS011;3449;48.728;8.968;2023-05-07T14:22:19;6.07;;;2.50;;
6821;SDS011;3449;48.728;8.968;2023-05-07T14:24:48;4.30;;;3.57;;
6821;SDS011;3449;48.728;8.968;2023-05-07T14:27:16;13.37;;;3.30;;
6821;SDS011;3449;48.728;8.968;2023-05-07T14:29:43;5.27;;;3.27;;
6821;SDS011;3449;48.728;8.968;2023-05-07T14:32:10;4.90;;;2.60;;
6821;SDS011;3449;48.728;8.968;2023-05-07T14:34:37;3.00;;;2.70;;
6821;SDS011;3449;48.728;8.968;2023-05-07T14:37:04;5.93;;;2.90;;
6821;SDS011;3449;48.728;8.968;2023-05-07T14:39:31;4.17;;;2.87;;
6821;SDS011;3449;48.728;8.968;2023-05-07T14:42:00;3.00;;;2.70;;
6821;SDS011;3449;48.728;8.968;2023-05-07T14:44:27;6.47;;;2.77;;
6821;SDS011;3449;48.728;8.968;2023-05-07T14:46:54;2.77;;;2.07;;
6821;SDS011;3449;48.728;8.968;2023-05-07T14:49:21;5.30;;;1.80;;
6821;SDS011;3449;48.728;8.968;2023-05-07T14:51:48;2.50;;;2.10;;
6821;SDS011;3449;48.728;8.968;2023-05-07T14:54:15;4.00;;;2.70;;
6821;SDS011;3449;48.728;8.968;2023-05-07T14:56:42;2.60;;;2.40;;
6821;SDS011;3449;48.728;8.968;2023-05-07T14:59:11;2.73;;;2.53;;
6821;SDS011;3449;48.728;8.968;2023-05-07T15:01:38;3.53;;;2.47;;
6821;SDS011;3449;48.728;8.968;2023-05-07T15:04:10;3.93;;;2.47;;
6821;SDS011;3449;48.728;8.968;2023-05-07T15:06:37;2.53;;;2.20;;
6821;SDS011;3449;48.728;8.968;2023-05-07T15:09:04;9.37;;;2.00;;
6821;SDS011;3449;48.728;8.968;2023-05-07T15:11:31;7.83;;;2.43;;
6821;SDS011;3449;48.728;8.968;2023-05-07T15:13:58;3.10;;;2.20;;
6821;SDS011;3449;48.728;8.968;2023-05-07T15:16:26;2.77;;;2.10;;
6821;SDS011;3449;48.728;8.968;2023-05-07T15:18:53;3.27;;;1.83;;
6821;SDS011;3449;48.728;8.968;2023-05-07T15:21:20;4.63;;;2.40;;
6821;SDS011;3449;48.728;8.968;2023-05-07T15:23:47;5.17;;;2.43;;
6821;SDS011;3449;48.728;8.968;2023-05-07T15:26:14;2.53;;;2.10;;
6821;SDS011;3449;48.728;8.968;2023-05-07T15:28:41;4.83;;;2.07;;
6821;SDS011;3449;48.728;8.968;2023-05-07T15:31:08;2.80;;;2.60;;